createdAt,value
2018-11-25T00:01:10.920Z,10.20
2018-11-25T00:03:40.718Z,10.20
2018-11-25T00:06:10.950Z,10.60
2018-11-25T00:08:40.756Z,9.63
2018-11-25T00:11:10.552Z,10.73
2018-11-25T00:13:40.484Z,10.20
2018-11-25T00:16:10.275Z,9.97
2018-11-25T00:18:40.164Z,9.20
2018-11-25T00:21:10.083Z,9.90
2018-11-25T00:23:39.963Z,9.50
2018-11-25T00:26:09.795Z,9.13
2018-11-25T00:28:39.636Z,8.60
2018-11-25T00:31:09.834Z,8.33
2018-11-25T00:33:39.324Z,9.00
2018-11-25T00:36:09.163Z,8.47
2018-11-25T00:38:39.125Z,10.70
2018-11-25T00:41:08.935Z,11.80
2018-11-25T00:43:38.726Z,11.57
2018-11-25T00:46:08.507Z,9.73
2018-11-25T00:48:38.271Z,8.90
2018-11-25T00:51:08.246Z,8.37
2018-11-25T00:53:37.798Z,8.83
2018-11-25T00:56:08.074Z,9.80
2018-11-25T00:58:37.797Z,10.10
2018-11-25T01:01:07.708Z,10.00
2018-11-25T01:03:37.440Z,8.27
2018-11-25T01:06:07.552Z,8.60
2018-11-25T01:08:37.520Z,9.33
2018-11-25T01:11:07.398Z,10.63
2018-11-25T01:13:37.219Z,13.77
2018-11-25T01:16:07.127Z,10.40
2018-11-25T01:18:36.896Z,8.70
2018-11-25T01:21:07.144Z,8.77
2018-11-25T01:23:36.869Z,8.50
2018-11-25T01:26:07.090Z,6.97
2018-11-25T01:28:36.903Z,7.90
2018-11-25T01:31:06.719Z,8.53
2018-11-25T01:33:36.416Z,9.97
2018-11-25T01:36:06.431Z,7.87
2018-11-25T01:38:36.355Z,7.13
2018-11-25T01:41:06.263Z,6.23
2018-11-25T01:43:36.056Z,6.50
2018-11-25T01:46:05.995Z,7.63
2018-11-25T01:48:35.836Z,6.47
2018-11-25T01:51:05.640Z,7.13
2018-11-25T01:53:35.464Z,8.17
2018-11-25T01:56:05.203Z,11.17
2018-11-25T01:58:35.036Z,12.70
2018-11-25T02:01:04.888Z,11.43
2018-11-25T02:03:34.804Z,10.30
2018-11-25T02:06:04.579Z,8.63
2018-11-25T02:08:34.365Z,8.10
2018-11-25T02:11:04.289Z,8.77
2018-11-25T02:13:34.021Z,8.27
2018-11-25T02:16:03.647Z,9.23
2018-11-25T02:18:33.327Z,11.00
2018-11-25T02:21:03.123Z,10.60
2018-11-25T02:23:32.736Z,11.30
2018-11-25T02:26:02.643Z,10.87
2018-11-25T02:28:32.418Z,10.77
2018-11-25T02:31:02.207Z,12.50
2018-11-25T02:33:32.084Z,18.10
2018-11-25T02:36:01.916Z,14.20
2018-11-25T02:38:31.710Z,10.33
2018-11-25T02:41:01.612Z,8.73
2018-11-25T02:43:31.494Z,9.93
2018-11-25T02:46:01.272Z,10.03
2018-11-25T02:48:31.068Z,10.30
2018-11-25T02:51:00.624Z,10.93
2018-11-25T02:53:30.413Z,9.33
2018-11-25T02:56:00.272Z,11.23
2018-11-25T02:58:29.965Z,10.20
2018-11-25T03:01:00.225Z,12.33
2018-11-25T03:03:29.962Z,11.80
2018-11-25T03:05:59.835Z,11.90
2018-11-25T03:08:29.704Z,12.00
2018-11-25T03:10:59.576Z,11.87
2018-11-25T03:13:29.597Z,11.17
2018-11-25T03:15:59.402Z,9.73
2018-11-25T03:18:29.266Z,11.33
2018-11-25T03:20:59.083Z,12.40
2018-11-25T03:23:28.919Z,15.63
2018-11-25T03:25:58.718Z,13.67
2018-11-25T03:28:28.510Z,16.90
2018-11-25T03:30:58.370Z,12.03
2018-11-25T03:33:28.149Z,10.07
2018-11-25T03:35:57.870Z,9.93
2018-11-25T03:38:27.720Z,12.23
2018-11-25T03:40:57.491Z,13.50
2018-11-25T03:43:27.106Z,13.17
2018-11-25T03:45:56.858Z,15.63
2018-11-25T03:48:26.671Z,18.57
2018-11-25T03:50:56.432Z,44.10
2018-11-25T03:53:26.275Z,13.70
2018-11-25T03:55:56.145Z,14.23
2018-11-25T03:58:26.012Z,13.07
2018-11-25T04:00:55.830Z,15.33
2018-11-25T04:03:25.602Z,15.20
2018-11-25T04:05:55.350Z,13.27
2018-11-25T04:08:25.159Z,11.90
2018-11-25T04:10:55.134Z,12.67
2018-11-25T04:13:24.919Z,12.87
2018-11-25T04:15:55.079Z,11.03
2018-11-25T04:18:24.816Z,11.93
2018-11-25T04:20:54.668Z,11.80
2018-11-25T04:23:24.460Z,14.37
2018-11-25T04:25:54.483Z,12.60
2018-11-25T04:28:24.220Z,12.57
2018-11-25T04:30:53.889Z,11.23
2018-11-25T04:33:23.605Z,11.13
2018-11-25T04:35:53.531Z,9.73
2018-11-25T04:38:23.471Z,16.67
2018-11-25T04:40:53.371Z,12.50
2018-11-25T04:43:23.270Z,8.57
2018-11-25T04:45:53.099Z,10.40
2018-11-25T04:48:23.006Z,10.10
2018-11-25T04:50:52.729Z,10.10
2018-11-25T04:53:22.519Z,13.77
2018-11-25T04:55:52.222Z,14.00
2018-11-25T04:58:22.093Z,10.90
2018-11-25T05:00:51.719Z,7.90
2018-11-25T05:03:21.479Z,7.53
2018-11-25T05:05:51.144Z,10.17
2018-11-25T05:08:20.874Z,8.80
2018-11-25T05:10:50.559Z,11.47
2018-11-25T05:13:20.460Z,12.77
2018-11-25T05:15:50.280Z,10.30
2018-11-25T05:18:20.267Z,9.67
2018-11-25T05:20:49.952Z,12.47
2018-11-25T05:23:19.753Z,10.50
2018-11-25T05:25:49.459Z,11.40
2018-11-25T05:28:19.236Z,16.30
2018-11-25T05:30:49.096Z,12.73
2018-11-25T05:33:18.972Z,14.30
2018-11-25T05:35:48.887Z,14.20
2018-11-25T05:38:18.782Z,17.63
2018-11-25T05:40:48.533Z,20.60
2018-11-25T05:43:18.511Z,19.53
2018-11-25T05:45:48.313Z,23.20
2018-11-25T05:48:18.117Z,18.23
2018-11-25T05:50:47.851Z,19.50
2018-11-25T05:53:17.656Z,22.40
2018-11-25T05:55:47.545Z,22.80
2018-11-25T05:58:17.272Z,31.90
2018-11-25T06:00:46.996Z,17.00
2018-11-25T06:03:16.776Z,19.97
2018-11-25T06:05:46.523Z,19.20
2018-11-25T06:08:16.347Z,15.53
2018-11-25T06:10:46.197Z,20.70
2018-11-25T06:13:15.792Z,12.03
2018-11-25T06:15:45.630Z,11.30
2018-11-25T06:18:15.345Z,11.63
2018-11-25T06:20:45.460Z,11.27
2018-11-25T06:23:15.192Z,11.00
2018-11-25T06:25:45.043Z,11.87
2018-11-25T06:28:14.878Z,12.33
2018-11-25T06:30:44.609Z,17.13
2018-11-25T06:33:14.370Z,12.63
2018-11-25T06:35:44.254Z,14.87
2018-11-25T06:38:13.952Z,19.37
2018-11-25T06:40:43.812Z,25.10
2018-11-25T06:43:13.631Z,33.57
2018-11-25T06:45:43.343Z,20.27
2018-11-25T06:48:13.119Z,22.60
2018-11-25T06:50:42.928Z,28.87
2018-11-25T06:53:12.780Z,47.47
2018-11-25T06:55:42.625Z,30.43
2018-11-25T06:58:12.513Z,29.90
2018-11-25T07:00:42.316Z,35.97
2018-11-25T07:03:12.179Z,30.97
2018-11-25T07:05:42.092Z,31.57
2018-11-25T07:08:11.860Z,36.07
2018-11-25T07:10:41.705Z,42.70
2018-11-25T07:13:11.469Z,41.27
2018-11-25T07:15:41.178Z,48.10
2018-11-25T07:18:10.945Z,50.17
2018-11-25T07:20:40.907Z,47.63
2018-11-25T07:23:11.086Z,43.30
2018-11-25T07:25:40.954Z,41.43
2018-11-25T07:28:18.499Z,38.47
2018-11-25T07:30:40.686Z,43.47
2018-11-25T07:33:10.459Z,38.00
2018-11-25T07:35:40.303Z,24.87
2018-11-25T07:38:10.069Z,21.67
2018-11-25T07:40:39.869Z,16.07
2018-11-25T07:43:09.662Z,11.03
2018-11-25T07:45:39.410Z,10.20
2018-11-25T07:48:09.251Z,11.40
2018-11-25T07:50:39.071Z,8.73
2018-11-25T07:53:08.852Z,13.33
2018-11-25T07:55:38.762Z,10.87
2018-11-25T07:58:08.610Z,10.00
2018-11-25T08:00:38.461Z,13.33
2018-11-25T08:03:08.287Z,9.83
2018-11-25T08:05:38.100Z,9.40
2018-11-25T08:08:07.862Z,9.70
2018-11-25T08:10:37.385Z,14.27
2018-11-25T08:13:07.389Z,13.23
2018-11-25T08:15:37.216Z,11.97
2018-11-25T08:18:07.430Z,14.33
2018-11-25T08:20:37.286Z,13.53
2018-11-25T08:23:06.885Z,14.63
2018-11-25T08:25:36.812Z,18.03
2018-11-25T08:28:06.684Z,19.80
2018-11-25T08:30:36.455Z,22.07
2018-11-25T08:33:06.869Z,20.87
2018-11-25T08:35:36.648Z,21.90
2018-11-25T08:38:06.608Z,22.07
2018-11-25T08:40:36.579Z,22.43
2018-11-25T08:43:06.171Z,26.33
2018-11-25T08:45:36.024Z,25.53
2018-11-25T08:48:06.003Z,23.80
2018-11-25T08:50:35.783Z,33.47
2018-11-25T08:53:05.580Z,28.70
2018-11-25T08:55:35.407Z,29.03
2018-11-25T08:58:05.184Z,26.93
2018-11-25T09:00:35.066Z,27.87
2018-11-25T09:03:04.980Z,30.60
2018-11-25T09:05:34.979Z,47.50
2018-11-25T09:08:04.725Z,32.90
2018-11-25T09:10:34.499Z,32.40
2018-11-25T09:13:04.359Z,30.57
2018-11-25T09:15:34.272Z,26.90
2018-11-25T09:18:03.968Z,26.50
2018-11-25T09:20:33.619Z,29.53
2018-11-25T09:23:03.496Z,27.93
2018-11-25T09:25:33.934Z,25.77
2018-11-25T09:28:04.898Z,24.20
2018-11-25T09:30:35.190Z,25.10
2018-11-25T09:33:05.096Z,23.60
2018-11-25T09:35:34.888Z,24.53
2018-11-25T09:38:06.000Z,25.00
2018-11-25T09:40:35.771Z,25.43
2018-11-25T09:43:05.627Z,25.30
2018-11-25T09:45:35.551Z,24.97
2018-11-25T09:48:05.993Z,23.17
2018-11-25T09:50:35.731Z,23.13
2018-11-25T09:53:05.789Z,20.80
2018-11-25T09:55:35.540Z,23.87
2018-11-25T09:58:05.346Z,20.40
2018-11-25T10:00:37.121Z,20.03
2018-11-25T10:03:08.109Z,24.47
2018-11-25T10:05:37.962Z,21.10
2018-11-25T10:08:09.591Z,16.60
2018-11-25T10:10:39.443Z,16.97
2018-11-25T10:13:09.336Z,21.27
2018-11-25T10:15:39.060Z,15.27
2018-11-25T10:18:09.261Z,18.40
2018-11-25T10:20:39.098Z,13.13
2018-11-25T10:23:08.938Z,12.83
2018-11-25T10:25:38.733Z,14.27
2018-11-25T10:28:08.909Z,14.97
2018-11-25T10:30:38.712Z,14.77
2018-11-25T10:33:09.975Z,15.70
2018-11-25T10:35:39.861Z,12.43
2018-11-25T10:38:10.685Z,13.43
2018-11-25T10:40:40.536Z,12.10
2018-11-25T10:43:10.379Z,12.00
2018-11-25T10:45:40.243Z,12.10
2018-11-25T10:48:10.881Z,16.57
2018-11-25T10:50:40.803Z,13.30
2018-11-25T10:53:10.613Z,16.20
2018-11-25T10:55:40.452Z,16.90
2018-11-25T10:58:11.025Z,18.90
2018-11-25T11:00:45.703Z,17.30
2018-11-25T11:03:20.618Z,15.93
2018-11-25T11:05:55.394Z,12.43
2018-11-25T11:08:26.223Z,12.90
2018-11-25T11:10:56.175Z,13.03
2018-11-25T11:13:26.026Z,13.80
2018-11-25T11:15:55.845Z,11.70
2018-11-25T11:18:25.692Z,13.73
2018-11-25T11:20:55.473Z,14.43
2018-11-25T11:23:25.339Z,22.53
2018-11-25T11:25:55.307Z,12.00
2018-11-25T11:28:25.272Z,11.23
2018-11-25T11:30:55.141Z,12.30
2018-11-25T11:33:24.792Z,16.37
2018-11-25T11:35:54.667Z,14.53
2018-11-25T11:38:24.407Z,13.13
2018-11-25T11:40:54.407Z,12.53
2018-11-25T11:43:24.276Z,11.37
2018-11-25T11:45:54.336Z,11.13
2018-11-25T11:48:24.236Z,12.30
2018-11-25T11:50:54.091Z,9.40
2018-11-25T11:53:23.971Z,8.83
2018-11-25T11:55:53.823Z,8.13
2018-11-25T11:58:23.594Z,9.97
2018-11-25T12:00:53.401Z,9.30
2018-11-25T12:03:26.464Z,8.67
2018-11-25T12:05:53.322Z,11.60
2018-11-25T12:08:23.080Z,13.93
2018-11-25T12:10:52.824Z,13.57
2018-11-25T12:13:22.549Z,15.13
2018-11-25T12:15:52.270Z,15.40
2018-11-25T12:18:22.111Z,11.80
2018-11-25T12:20:51.930Z,14.33
2018-11-25T12:23:21.723Z,13.33
2018-11-25T12:25:51.498Z,15.30
2018-11-25T12:28:21.252Z,12.70
2018-11-25T12:30:51.375Z,12.40
2018-11-25T12:33:21.241Z,13.50
2018-11-25T12:35:50.964Z,14.10
2018-11-25T12:38:20.693Z,17.00
2018-11-25T12:40:50.574Z,11.40
2018-11-25T12:43:20.484Z,11.27
2018-11-25T12:45:50.340Z,13.60
2018-11-25T12:48:20.232Z,11.50
2018-11-25T12:50:50.109Z,12.47
2018-11-25T12:53:19.947Z,11.90
2018-11-25T12:55:49.739Z,15.67
2018-11-25T12:58:19.379Z,14.27
2018-11-25T13:00:50.662Z,12.37
2018-11-25T13:03:20.454Z,13.50
2018-11-25T13:05:50.279Z,17.13
2018-11-25T13:08:20.147Z,20.77
2018-11-25T13:10:50.100Z,14.50
2018-11-25T13:13:20.004Z,14.10
2018-11-25T13:15:49.783Z,14.73
2018-11-25T13:18:19.649Z,13.77
2018-11-25T13:20:49.415Z,19.00
2018-11-25T13:23:20.479Z,16.53
2018-11-25T13:25:50.129Z,15.20
2018-11-25T13:28:20.007Z,15.17
2018-11-25T13:30:49.877Z,14.00
2018-11-25T13:33:20.560Z,15.73
2018-11-25T13:35:50.361Z,17.90
2018-11-25T13:38:21.167Z,19.60
2018-11-25T13:40:51.469Z,20.30
2018-11-25T13:43:21.276Z,20.30
2018-11-25T13:45:51.138Z,19.57
2018-11-25T13:48:21.449Z,24.63
2018-11-25T13:50:51.165Z,22.37
2018-11-25T13:53:21.036Z,21.57
2018-11-25T13:55:50.908Z,21.80
2018-11-25T13:58:20.778Z,22.87
2018-11-25T14:00:52.512Z,23.43
2018-11-25T14:03:40.544Z,21.70
2018-11-25T14:06:13.142Z,21.10
2018-11-25T14:08:43.776Z,21.43
2018-11-25T14:11:15.036Z,24.60
2018-11-25T14:13:44.920Z,27.80
2018-11-25T14:16:17.539Z,28.63
2018-11-25T14:18:48.521Z,26.77
2018-11-25T14:21:18.290Z,28.37
2018-11-25T14:23:48.121Z,27.00
2018-11-25T14:26:23.423Z,27.93
2018-11-25T14:28:54.187Z,28.33
2018-11-25T14:31:23.960Z,42.30
2018-11-25T14:33:53.836Z,35.63
2018-11-25T14:36:23.614Z,37.93
2018-11-25T14:38:54.565Z,38.03
2018-11-25T14:41:24.433Z,30.00
2018-11-25T14:43:54.312Z,31.60
2018-11-25T14:46:24.106Z,50.70
2018-11-25T14:48:53.984Z,74.03
2018-11-25T14:51:23.670Z,76.03
2018-11-25T14:53:53.516Z,61.63
2018-11-25T14:56:23.252Z,66.00
2018-11-25T14:58:53.009Z,61.50
2018-11-25T15:01:22.868Z,46.93
2018-11-25T15:03:54.450Z,46.73
2018-11-25T15:06:29.247Z,42.03
2018-11-25T15:08:54.415Z,48.80
2018-11-25T15:11:24.207Z,42.60
2018-11-25T15:13:54.063Z,42.63
2018-11-25T15:16:23.976Z,42.10
2018-11-25T15:18:53.838Z,51.10
2018-11-25T15:21:23.676Z,55.80
2018-11-25T15:23:53.754Z,48.50
2018-11-25T15:26:23.585Z,51.50
2018-11-25T15:28:53.431Z,55.13
2018-11-25T15:31:23.305Z,69.53
2018-11-25T15:33:53.107Z,76.63
2018-11-25T15:36:23.007Z,78.60
2018-11-25T15:38:52.813Z,61.37
2018-11-25T15:41:22.655Z,61.77
2018-11-25T15:43:52.512Z,63.93
2018-11-25T15:46:22.308Z,60.53
2018-11-25T15:48:52.010Z,63.30
2018-11-25T15:51:21.923Z,61.50
2018-11-25T15:53:51.824Z,80.20
2018-11-25T15:56:21.637Z,82.93
2018-11-25T15:58:51.542Z,76.90
2018-11-25T16:01:21.372Z,82.97
2018-11-25T16:03:51.186Z,78.00
2018-11-25T16:06:28.653Z,61.40
2018-11-25T16:08:59.008Z,80.27
2018-11-25T16:11:28.856Z,89.43
2018-11-25T16:13:58.531Z,100.97
2018-11-25T16:16:28.343Z,98.77
2018-11-25T16:18:58.418Z,98.40
2018-11-25T16:21:28.137Z,86.50
2018-11-25T16:23:57.976Z,84.87
2018-11-25T16:26:32.915Z,84.17
2018-11-25T16:29:13.783Z,83.33
2018-11-25T16:31:43.567Z,80.00
2018-11-25T16:34:13.293Z,81.77
2018-11-25T16:36:43.171Z,100.03
2018-11-25T16:39:13.127Z,108.97
2018-11-25T16:41:42.951Z,101.10
2018-11-25T16:44:12.820Z,117.67
2018-11-25T16:46:42.512Z,101.40
2018-11-25T16:49:12.272Z,100.03
2018-11-25T16:51:42.188Z,127.03
2018-11-25T16:54:11.976Z,116.77
2018-11-25T16:56:41.798Z,115.53
2018-11-25T16:59:11.660Z,103.27
2018-11-25T17:01:41.443Z,124.63
2018-11-25T17:04:11.299Z,155.20
2018-11-25T17:06:42.433Z,119.47
2018-11-25T17:09:13.647Z,118.27
2018-11-25T17:11:43.441Z,92.07
2018-11-25T17:14:13.274Z,83.30
2018-11-25T17:16:43.037Z,90.30
2018-11-25T17:19:13.644Z,84.30
2018-11-25T17:21:43.374Z,83.50
2018-11-25T17:24:13.328Z,73.60
2018-11-25T17:26:43.115Z,78.37
2018-11-25T17:29:13.358Z,68.23
2018-11-25T17:31:43.182Z,83.00
2018-11-25T17:34:12.899Z,84.10
2018-11-25T17:36:42.572Z,89.27
2018-11-25T17:39:12.542Z,94.20
2018-11-25T17:41:42.496Z,113.80
2018-11-25T17:44:12.216Z,113.13
2018-11-25T17:46:42.115Z,103.07
2018-11-25T17:49:11.922Z,104.00
2018-11-25T17:51:41.789Z,87.70
2018-11-25T17:54:11.694Z,81.20
2018-11-25T17:56:41.609Z,57.53
2018-11-25T17:59:11.427Z,54.37
2018-11-25T18:01:41.267Z,72.43
2018-11-25T18:04:11.167Z,56.67
2018-11-25T18:06:41.075Z,74.33
2018-11-25T18:09:12.306Z,71.53
2018-11-25T18:11:42.157Z,68.83
2018-11-25T18:14:12.225Z,71.70
2018-11-25T18:16:41.895Z,77.03
2018-11-25T18:19:22.724Z,88.13
2018-11-25T18:22:25.894Z,85.10
2018-11-25T18:24:55.637Z,78.73
2018-11-25T18:27:25.452Z,79.47
2018-11-25T18:29:55.360Z,80.70
2018-11-25T18:32:25.192Z,71.97
2018-11-25T18:34:56.293Z,51.33
2018-11-25T18:37:25.123Z,47.77
2018-11-25T18:39:55.147Z,48.80
2018-11-25T18:42:24.960Z,61.70
2018-11-25T18:44:54.755Z,52.90
2018-11-25T18:47:24.608Z,31.63
2018-11-25T18:49:54.440Z,22.87
2018-11-25T18:52:24.380Z,16.53
2018-11-25T18:54:52.466Z,30.17
2018-11-25T18:57:22.190Z,25.27
2018-11-25T18:59:52.065Z,16.77
2018-11-25T19:02:24.905Z,17.10
2018-11-25T19:04:54.614Z,22.67
2018-11-25T19:07:25.119Z,18.50
2018-11-25T19:09:54.954Z,12.67
2018-11-25T19:12:24.680Z,14.60
2018-11-25T19:14:54.600Z,10.20
2018-11-25T19:17:24.435Z,10.20
2018-11-25T19:19:54.287Z,12.57
2018-11-25T19:22:24.073Z,12.53
2018-11-25T19:24:54.008Z,10.57
2018-11-25T19:27:23.929Z,12.73
2018-11-25T19:29:53.766Z,14.73
2018-11-25T19:32:23.491Z,12.10
2018-11-25T19:34:53.430Z,11.43
2018-11-25T19:37:23.313Z,10.90
2018-11-25T19:39:53.221Z,11.83
2018-11-25T19:42:23.326Z,13.77
2018-11-25T19:44:53.226Z,13.17
2018-11-25T19:47:23.009Z,10.33
2018-11-25T19:49:53.170Z,11.20
2018-11-25T19:52:22.809Z,8.67
2018-11-25T19:54:52.691Z,10.40
2018-11-25T19:57:22.446Z,10.60
2018-11-25T19:59:52.208Z,9.67
2018-11-25T20:02:22.120Z,9.83
2018-11-25T20:04:51.952Z,11.93
2018-11-25T20:07:21.856Z,11.10
2018-11-25T20:09:51.788Z,12.13
2018-11-25T20:12:41.250Z,12.57
2018-11-25T20:15:15.453Z,11.50
2018-11-25T20:17:53.698Z,12.37
2018-11-25T20:20:19.363Z,12.73
2018-11-25T20:22:49.827Z,11.30
2018-11-25T20:25:20.020Z,13.27
2018-11-25T20:27:57.211Z,13.10
2018-11-25T20:30:28.332Z,13.17
2018-11-25T20:33:03.211Z,12.20
2018-11-25T20:35:32.990Z,12.57
2018-11-25T20:38:07.860Z,12.80
2018-11-25T20:40:37.599Z,12.00
2018-11-25T20:43:08.244Z,13.70
2018-11-25T20:45:42.944Z,16.43
2018-11-25T20:48:13.417Z,12.13
2018-11-25T20:50:43.331Z,10.67
2018-11-25T20:53:18.235Z,10.03
2018-11-25T20:55:48.160Z,10.17
2018-11-25T20:58:18.023Z,10.33
2018-11-25T21:00:47.949Z,12.10
2018-11-25T21:03:17.812Z,12.80
2018-11-25T21:05:47.585Z,12.53
2018-11-25T21:08:17.436Z,13.37
2018-11-25T21:10:47.221Z,9.50
2018-11-25T21:13:17.048Z,9.63
2018-11-25T21:15:46.952Z,22.80
2018-11-25T21:18:16.741Z,11.63
2018-11-25T21:20:51.014Z,10.33
2018-11-25T21:23:17.392Z,11.90
2018-11-25T21:25:46.307Z,10.10
2018-11-25T21:28:16.264Z,10.63
2018-11-25T21:30:46.219Z,11.70
2018-11-25T21:33:15.939Z,13.97
2018-11-25T21:35:45.710Z,10.87
2018-11-25T21:38:15.575Z,10.33
2018-11-25T21:40:45.344Z,9.10
2018-11-25T21:43:15.291Z,9.53
2018-11-25T21:45:45.069Z,10.57
2018-11-25T21:48:14.897Z,9.97
2018-11-25T21:50:44.639Z,9.57
2018-11-25T21:53:14.540Z,8.83
2018-11-25T21:55:44.398Z,8.57
2018-11-25T21:58:14.030Z,8.33
2018-11-25T22:00:43.984Z,8.93
2018-11-25T22:03:13.910Z,9.50
2018-11-25T22:05:43.745Z,8.80
2018-11-25T22:08:13.653Z,10.50
2018-11-25T22:10:43.492Z,8.87
2018-11-25T22:13:13.235Z,8.60
2018-11-25T22:15:43.063Z,8.43
2018-11-25T22:18:12.922Z,9.37
2018-11-25T22:20:42.685Z,9.17
2018-11-25T22:23:12.525Z,9.10
2018-11-25T22:25:42.305Z,9.50
2018-11-25T22:28:12.070Z,8.37
2018-11-25T22:30:41.916Z,8.70
2018-11-25T22:33:11.687Z,9.97
2018-11-25T22:35:41.747Z,9.10
2018-11-25T22:38:11.476Z,7.60
2018-11-25T22:40:41.211Z,7.43
2018-11-25T22:43:10.966Z,7.37
2018-11-25T22:45:41.009Z,17.10
2018-11-25T22:48:10.622Z,7.07
2018-11-25T22:50:40.506Z,6.30
2018-11-25T22:53:10.307Z,5.33
2018-11-25T22:55:40.004Z,5.87
2018-11-25T22:58:09.909Z,6.00
2018-11-25T23:00:39.946Z,5.57
2018-11-25T23:03:09.811Z,5.70
2018-11-25T23:05:50.239Z,5.63
2018-11-25T23:08:20.568Z,5.43
2018-11-25T23:10:50.398Z,6.23
2018-11-25T23:13:20.143Z,5.63
2018-11-25T23:15:49.975Z,5.80
2018-11-25T23:18:19.815Z,6.77
2018-11-25T23:20:49.686Z,5.60
2018-11-25T23:23:19.520Z,6.50
2018-11-25T23:25:49.295Z,5.03
2018-11-25T23:28:19.133Z,5.97
2018-11-25T23:30:49.057Z,4.67
2018-11-25T23:33:18.830Z,4.37
2018-11-25T23:35:48.744Z,5.57
2018-11-25T23:38:18.522Z,4.60
2018-11-25T23:40:48.220Z,4.60
2018-11-25T23:43:18.016Z,3.50
2018-11-25T23:45:47.857Z,4.60
2018-11-25T23:48:17.616Z,4.50
2018-11-25T23:50:47.442Z,4.20
2018-11-25T23:53:17.238Z,4.57
2018-11-25T23:55:47.072Z,4.37
2018-11-25T23:58:16.968Z,4.00
